createdAt,value
2022-09-09T00:01:31.726Z,1.10
2022-09-09T00:04:01.380Z,1.30
2022-09-09T00:06:32.800Z,1.40
2022-09-09T00:09:13.882Z,1.20
2022-09-09T00:11:44.812Z,1.00
2022-09-09T00:14:21.332Z,1.10
2022-09-09T00:16:55.332Z,1.20
2022-09-09T00:19:34.592Z,1.10
2022-09-09T00:22:23.516Z,1.10
2022-09-09T00:24:55.448Z,1.20
2022-09-09T00:27:47.556Z,1.30
2022-09-09T00:30:20.591Z,1.10
2022-09-09T00:32:49.230Z,1.10
2022-09-09T00:35:16.963Z,1.10
2022-09-09T00:37:45.574Z,1.20
2022-09-09T00:40:27.351Z,1.00
2022-09-09T00:43:31.180Z,1.10
2022-09-09T00:46:45.753Z,1.00
2022-09-09T00:49:26.732Z,1.00
2022-09-09T00:52:14.847Z,1.10
2022-09-09T00:54:56.765Z,0.90
2022-09-09T00:57:29.274Z,1.10
2022-09-09T00:59:55.973Z,1.00
2022-09-09T01:02:30.892Z,1.00
2022-09-09T01:05:09.913Z,1.30
2022-09-09T01:07:37.477Z,1.10
2022-09-09T01:10:16.138Z,0.90
2022-09-09T01:12:44.909Z,1.40
2022-09-09T01:15:31.619Z,1.10
2022-09-09T01:17:59.003Z,1.00
2022-09-09T01:20:57.576Z,1.00
2022-09-09T01:23:47.275Z,1.00
2022-09-09T01:26:34.883Z,0.90
2022-09-09T01:29:02.194Z,0.90
2022-09-09T01:31:37.280Z,1.00
2022-09-09T01:34:11.005Z,0.80
2022-09-09T01:36:44.080Z,1.00
2022-09-09T01:39:11.708Z,0.90
2022-09-09T01:41:39.356Z,1.00
2022-09-09T01:44:08.352Z,1.30
2022-09-09T01:46:35.034Z,1.00
2022-09-09T01:49:04.826Z,1.00
2022-09-09T01:51:31.996Z,1.10
2022-09-09T01:53:58.895Z,1.00
2022-09-09T01:56:48.900Z,1.40
2022-09-09T01:59:49.711Z,1.10
2022-09-09T02:02:27.265Z,1.10
2022-09-09T02:05:03.153Z,1.20
2022-09-09T02:07:43.062Z,1.00
2022-09-09T02:10:25.756Z,1.20
2022-09-09T02:13:09.462Z,1.10
2022-09-09T02:15:42.769Z,1.20
2022-09-09T02:18:13.360Z,1.10
2022-09-09T02:20:40.793Z,1.10
2022-09-09T02:23:09.965Z,1.20
2022-09-09T02:25:38.156Z,1.10
2022-09-09T02:28:09.183Z,1.00
2022-09-09T02:30:37.251Z,1.20
2022-09-09T02:33:08.036Z,1.10
2022-09-09T02:35:38.618Z,1.20
2022-09-09T02:38:11.418Z,1.00
2022-09-09T02:40:38.646Z,1.20
2022-09-09T02:43:07.342Z,1.30
2022-09-09T02:45:52.609Z,1.10
2022-09-09T02:48:27.485Z,1.20
2022-09-09T02:50:58.834Z,1.10
2022-09-09T02:53:35.732Z,1.20
2022-09-09T02:56:21.428Z,1.00
2022-09-09T02:58:48.516Z,1.00
2022-09-09T03:01:15.443Z,1.00
2022-09-09T03:03:43.438Z,1.20
2022-09-09T03:06:10.953Z,1.20
2022-09-09T03:08:37.943Z,1.00
2022-09-09T03:11:08.491Z,1.10
2022-09-09T03:13:35.548Z,1.20
2022-09-09T03:16:06.520Z,1.30
2022-09-09T03:18:33.613Z,1.20
2022-09-09T03:21:00.653Z,1.10
2022-09-09T03:23:27.548Z,1.10
2022-09-09T03:25:57.894Z,1.20
2022-09-09T03:28:26.144Z,1.20
2022-09-09T03:30:52.942Z,1.30
2022-09-09T03:33:19.952Z,1.20
2022-09-09T03:35:49.696Z,1.20
2022-09-09T03:38:16.642Z,1.30
2022-09-09T03:40:50.759Z,1.40
2022-09-09T03:43:17.731Z,1.20
2022-09-09T03:45:48.579Z,1.10
2022-09-09T03:48:16.340Z,1.20
2022-09-09T03:50:47.868Z,1.30
2022-09-09T03:53:16.340Z,1.20
2022-09-09T03:55:47.799Z,1.20
2022-09-09T03:58:15.745Z,1.30
2022-09-09T04:00:46.114Z,1.40
2022-09-09T04:03:12.885Z,1.40
2022-09-09T04:05:43.369Z,1.30
2022-09-09T04:08:10.456Z,1.50
2022-09-09T04:10:38.200Z,1.50
2022-09-09T04:13:05.751Z,1.20
2022-09-09T04:15:32.926Z,1.60
2022-09-09T04:17:59.799Z,1.30
2022-09-09T04:20:27.135Z,1.30
2022-09-09T04:22:53.950Z,1.60
2022-09-09T04:25:21.500Z,1.30
2022-09-09T04:27:48.518Z,1.50
2022-09-09T04:30:15.223Z,1.60
2022-09-09T04:32:42.047Z,1.60
2022-09-09T04:35:09.156Z,1.50
2022-09-09T04:37:35.900Z,1.40
2022-09-09T04:40:03.592Z,1.30
2022-09-09T04:42:31.106Z,1.30
2022-09-09T04:44:58.313Z,1.30
2022-09-09T04:47:25.098Z,1.10
2022-09-09T04:49:52.584Z,1.30
2022-09-09T04:52:19.763Z,1.30
2022-09-09T04:54:46.870Z,1.40
2022-09-09T04:57:18.076Z,1.20
2022-09-09T04:59:47.151Z,1.60
2022-09-09T05:02:13.971Z,1.30
2022-09-09T05:04:41.929Z,1.40
2022-09-09T05:07:09.027Z,1.20
2022-09-09T05:09:36.051Z,1.70
2022-09-09T05:12:03.910Z,1.90
2022-09-09T05:14:31.052Z,1.30
2022-09-09T05:16:59.026Z,4.90
2022-09-09T05:19:25.795Z,1.50
2022-09-09T05:21:52.727Z,1.60
2022-09-09T05:24:19.779Z,2.30
2022-09-09T05:26:46.600Z,1.60
2022-09-09T05:29:13.390Z,3.70
2022-09-09T05:31:40.236Z,2.40
2022-09-09T05:34:07.073Z,1.80
2022-09-09T05:36:34.132Z,1.70
2022-09-09T05:39:02.264Z,1.60
2022-09-09T05:41:29.838Z,1.50
2022-09-09T05:43:57.031Z,1.30
2022-09-09T05:46:26.116Z,1.30
2022-09-09T05:48:54.302Z,1.40
2022-09-09T05:51:29.068Z,1.70
2022-09-09T05:53:56.273Z,1.50
2022-09-09T05:56:26.238Z,1.30
2022-09-09T05:58:55.028Z,1.40
2022-09-09T06:01:33.229Z,1.50
2022-09-09T06:04:00.523Z,1.30
2022-09-09T06:06:31.791Z,1.20
2022-09-09T06:08:59.149Z,1.40
2022-09-09T06:11:28.358Z,1.30
2022-09-09T06:13:55.608Z,1.40
2022-09-09T06:16:24.841Z,1.50
2022-09-09T06:18:52.336Z,2.00
2022-09-09T06:21:31.110Z,1.70
2022-09-09T06:24:01.086Z,1.40
2022-09-09T06:26:36.735Z,1.50
2022-09-09T06:29:05.056Z,1.60
2022-09-09T06:31:35.363Z,1.90
2022-09-09T06:34:03.355Z,1.70
2022-09-09T06:36:32.184Z,1.90
2022-09-09T06:38:59.766Z,1.70
2022-09-09T06:41:29.647Z,1.70
2022-09-09T06:43:56.609Z,1.40
2022-09-09T06:46:34.068Z,1.60
2022-09-09T06:49:01.329Z,1.30
2022-09-09T06:51:31.378Z,1.40
2022-09-09T06:54:03.178Z,1.40
2022-09-09T06:56:32.771Z,1.30
2022-09-09T06:59:04.930Z,1.10
2022-09-09T07:01:38.643Z,1.30
2022-09-09T07:04:08.502Z,1.20
2022-09-09T07:06:37.914Z,1.50
2022-09-09T07:09:07.267Z,1.20
2022-09-09T07:11:38.430Z,1.30
2022-09-09T07:14:05.536Z,1.50
2022-09-09T07:16:34.597Z,1.30
2022-09-09T07:19:01.589Z,1.10
2022-09-09T07:21:29.523Z,1.20
2022-09-09T07:23:57.245Z,1.30
2022-09-09T07:26:26.433Z,1.40
2022-09-09T07:28:54.474Z,1.50
2022-09-09T07:31:33.072Z,1.50
2022-09-09T07:34:00.952Z,1.40
2022-09-09T07:36:33.773Z,1.30
2022-09-09T07:39:07.150Z,1.10
2022-09-09T07:41:35.163Z,1.30
2022-09-09T07:44:10.009Z,1.60
2022-09-09T07:46:37.667Z,1.10
2022-09-09T07:49:04.764Z,1.30
2022-09-09T07:51:37.968Z,1.20
2022-09-09T07:54:07.493Z,1.10
2022-09-09T07:56:34.543Z,1.30
2022-09-09T07:59:02.440Z,1.30
2022-09-09T08:01:31.084Z,1.10
2022-09-09T08:04:03.837Z,1.10
2022-09-09T08:06:51.315Z,1.10
2022-09-09T08:09:18.212Z,1.20
2022-09-09T08:11:45.089Z,0.90
2022-09-09T08:14:13.089Z,1.10
2022-09-09T08:16:45.712Z,1.00
2022-09-09T08:19:13.072Z,1.10
2022-09-09T08:21:41.771Z,0.90
2022-09-09T08:24:11.393Z,1.10
2022-09-09T08:26:40.846Z,0.90
2022-09-09T08:29:08.709Z,0.90
2022-09-09T08:31:40.072Z,1.30
2022-09-09T08:34:09.027Z,1.10
2022-09-09T08:36:43.332Z,1.10
2022-09-09T08:39:11.984Z,0.90
2022-09-09T08:42:03.386Z,1.10
2022-09-09T08:44:37.016Z,1.00
2022-09-09T08:47:10.646Z,1.20
2022-09-09T08:49:50.124Z,1.00
2022-09-09T08:52:23.142Z,0.70
2022-09-09T08:54:52.828Z,0.60
2022-09-09T08:57:27.891Z,0.90
2022-09-09T08:59:57.831Z,1.20
2022-09-09T09:02:32.149Z,1.10
2022-09-09T09:05:28.578Z,1.10
2022-09-09T09:08:17.304Z,0.80
2022-09-09T09:10:51.642Z,1.00
2022-09-09T09:13:24.099Z,1.00
2022-09-09T09:15:59.881Z,1.10
2022-09-09T09:18:28.003Z,1.70
2022-09-09T09:21:06.418Z,1.20
2022-09-09T09:23:43.501Z,0.90
2022-09-09T09:26:14.329Z,1.10
2022-09-09T09:28:42.281Z,0.80
2022-09-09T09:31:11.943Z,0.80
2022-09-09T09:33:50.496Z,1.30
2022-09-09T09:36:17.868Z,1.20
2022-09-09T09:41:48.580Z,1.00
2022-09-09T09:44:42.967Z,0.80
2022-09-09T09:47:21.499Z,0.80
2022-09-09T09:50:09.177Z,0.90
2022-09-09T09:52:37.756Z,1.00
2022-09-09T09:55:13.172Z,0.90
2022-09-09T09:57:40.265Z,1.10
2022-09-09T10:00:22.661Z,0.90
2022-09-09T10:02:52.758Z,0.80
2022-09-09T10:05:36.886Z,1.00
2022-09-09T10:08:10.252Z,0.80
2022-09-09T10:10:47.413Z,1.10
2022-09-09T10:13:33.355Z,0.70
2022-09-09T10:16:27.426Z,0.80
2022-09-09T10:19:12.389Z,0.80
2022-09-09T10:21:39.185Z,1.00
2022-09-09T10:24:11.703Z,0.80
2022-09-09T10:26:54.500Z,1.40
2022-09-09T10:29:30.303Z,0.90
2022-09-09T10:32:21.776Z,1.30
2022-09-09T10:35:12.964Z,1.10
2022-09-09T10:37:55.550Z,0.90
2022-09-09T10:40:27.489Z,1.10
2022-09-09T10:43:02.232Z,0.90
2022-09-09T10:45:52.025Z,1.10
2022-09-09T10:48:51.585Z,0.90
2022-09-09T10:51:27.396Z,0.90
2022-09-09T10:54:14.316Z,1.00
2022-09-09T10:56:45.041Z,1.10
2022-09-09T10:59:27.327Z,0.90
2022-09-09T11:02:43.006Z,1.20
2022-09-09T11:05:18.336Z,0.80
2022-09-09T11:08:40.350Z,1.30
2022-09-09T11:11:33.165Z,0.90
2022-09-09T11:14:10.429Z,0.90
2022-09-09T11:16:43.597Z,0.70
2022-09-09T11:19:18.099Z,0.80
2022-09-09T11:21:52.934Z,0.90
2022-09-09T11:24:30.195Z,0.80
2022-09-09T11:27:08.667Z,0.80
2022-09-09T11:29:54.766Z,0.60
2022-09-09T11:32:21.775Z,0.80
2022-09-09T11:34:54.291Z,0.80
2022-09-09T11:37:55.546Z,0.80
2022-09-09T11:40:28.028Z,0.80
2022-09-09T11:43:07.075Z,0.90
2022-09-09T11:45:36.721Z,0.80
2022-09-09T11:48:06.974Z,0.40
2022-09-09T11:50:39.066Z,0.70
2022-09-09T11:53:15.341Z,0.60
2022-09-09T11:55:45.714Z,0.60
2022-09-09T11:58:12.577Z,1.00
2022-09-09T12:03:44.981Z,0.80
2022-09-09T12:06:29.690Z,0.80
2022-09-09T12:09:07.511Z,0.80
2022-09-09T12:11:36.788Z,0.60
2022-09-09T12:14:03.920Z,0.60
2022-09-09T12:16:35.771Z,0.40
2022-09-09T12:19:10.797Z,0.60
2022-09-09T12:21:43.453Z,0.70
2022-09-09T12:24:21.339Z,0.50
2022-09-09T12:27:04.210Z,0.60
2022-09-09T12:30:08.628Z,0.60
2022-09-09T12:32:35.769Z,0.70
2022-09-09T12:35:20.517Z,0.60
2022-09-09T12:37:47.207Z,0.70
2022-09-09T12:40:20.838Z,0.60
2022-09-09T12:42:47.484Z,0.50
2022-09-09T12:45:22.557Z,0.70
2022-09-09T12:47:55.412Z,0.40
2022-09-09T12:50:29.266Z,0.50
2022-09-09T12:52:59.585Z,0.40
2022-09-09T12:55:31.247Z,0.50
2022-09-09T12:58:00.543Z,0.60
2022-09-09T13:00:28.130Z,0.50
2022-09-09T13:03:03.294Z,0.80
2022-09-09T13:05:37.016Z,0.60
2022-09-09T13:08:05.751Z,0.40
2022-09-09T13:10:51.746Z,0.40
2022-09-09T13:13:40.910Z,0.60
2022-09-09T13:16:21.274Z,0.50
2022-09-09T13:18:48.009Z,0.40
2022-09-09T13:21:15.663Z,0.40
2022-09-09T13:23:42.721Z,0.50
2022-09-09T13:26:27.325Z,0.50
2022-09-09T13:29:15.788Z,0.80
2022-09-09T13:31:44.961Z,0.30
2022-09-09T13:34:28.144Z,0.50
2022-09-09T13:37:03.631Z,0.50
2022-09-09T13:39:30.364Z,0.40
2022-09-09T13:41:58.171Z,0.50
2022-09-09T13:44:42.769Z,0.50
2022-09-09T13:47:31.213Z,1.80
2022-09-09T13:49:58.009Z,0.40
2022-09-09T13:52:24.941Z,0.40
2022-09-09T13:54:52.766Z,0.60
2022-09-09T13:57:22.694Z,0.70
2022-09-09T14:00:06.388Z,0.80
2022-09-09T14:02:34.643Z,0.60
2022-09-09T14:05:01.269Z,0.60
2022-09-09T14:07:28.201Z,0.50
2022-09-09T14:09:54.839Z,0.50
2022-09-09T14:12:21.585Z,0.60
2022-09-09T14:14:48.274Z,0.50
2022-09-09T14:17:16.041Z,0.70
2022-09-09T14:19:43.594Z,0.50
2022-09-09T14:22:10.378Z,0.50
2022-09-09T14:24:37.040Z,0.50
2022-09-09T14:27:03.891Z,0.40
2022-09-09T14:29:30.383Z,0.60
2022-09-09T14:31:57.032Z,0.60
2022-09-09T14:34:23.650Z,0.60
2022-09-09T14:36:50.595Z,0.60
2022-09-09T14:39:17.237Z,0.40
2022-09-09T14:41:44.031Z,0.60
2022-09-09T14:44:11.166Z,0.60
2022-09-09T14:46:37.855Z,0.50
2022-09-09T14:49:04.651Z,0.50
2022-09-09T14:51:31.729Z,0.70
2022-09-09T14:54:00.324Z,0.60
2022-09-09T14:56:30.631Z,0.70
2022-09-09T14:58:59.250Z,0.60
2022-09-09T15:01:30.276Z,0.60
2022-09-09T15:04:02.613Z,0.70
2022-09-09T15:06:31.559Z,0.70
2022-09-09T15:08:58.767Z,0.60
2022-09-09T15:11:28.813Z,0.70
2022-09-09T15:13:55.885Z,0.60
2022-09-09T15:16:25.293Z,0.70
2022-09-09T15:18:55.178Z,0.50
2022-09-09T15:21:23.788Z,0.60
2022-09-09T15:23:50.920Z,0.70
2022-09-09T15:26:18.660Z,0.80
2022-09-09T15:28:48.257Z,0.70
2022-09-09T15:31:20.506Z,0.70
2022-09-09T15:34:01.653Z,0.60
2022-09-09T15:36:29.700Z,0.80
2022-09-09T15:38:56.421Z,0.60
2022-09-09T15:41:23.905Z,0.50
2022-09-09T15:43:52.855Z,0.60
2022-09-09T15:46:38.855Z,0.60
2022-09-09T15:49:16.036Z,0.90
2022-09-09T15:51:45.052Z,0.60
2022-09-09T15:54:14.852Z,0.60
2022-09-09T15:56:42.924Z,0.60
2022-09-09T15:59:10.220Z,0.70
2022-09-09T16:01:37.123Z,0.90
2022-09-09T16:04:04.847Z,0.70
2022-09-09T16:06:31.672Z,0.60
2022-09-09T16:09:00.430Z,0.80
2022-09-09T16:11:29.727Z,0.70
2022-09-09T16:13:56.530Z,0.70
2022-09-09T16:16:25.747Z,0.60
2022-09-09T16:18:55.242Z,0.70
2022-09-09T16:21:35.267Z,0.70
2022-09-09T16:24:03.706Z,0.50
2022-09-09T16:26:32.326Z,0.70
2022-09-09T16:29:02.249Z,0.60
2022-09-09T16:31:30.182Z,0.60
2022-09-09T16:33:57.229Z,0.60
2022-09-09T16:36:32.218Z,1.00
2022-09-09T16:39:00.838Z,0.60
2022-09-09T16:41:29.529Z,0.50
2022-09-09T16:44:03.333Z,0.70
2022-09-09T16:46:31.759Z,0.60
2022-09-09T16:49:00.510Z,0.60
2022-09-09T16:51:33.402Z,0.90
2022-09-09T16:54:02.333Z,1.00
2022-09-09T16:56:31.319Z,0.70
2022-09-09T16:59:00.720Z,1.00
2022-09-09T17:01:29.719Z,1.10
2022-09-09T17:04:01.175Z,0.70
2022-09-09T17:06:30.336Z,0.90
2022-09-09T17:09:02.438Z,0.90
2022-09-09T17:11:30.284Z,0.80
2022-09-09T17:13:59.058Z,1.00
2022-09-09T17:16:28.418Z,1.10
2022-09-09T17:18:56.439Z,1.00
2022-09-09T17:21:26.900Z,0.90
2022-09-09T17:23:55.149Z,1.50
2022-09-09T17:26:24.278Z,1.70
2022-09-09T17:28:52.074Z,1.30
2022-09-09T17:31:20.765Z,1.10
2022-09-09T17:33:50.983Z,1.00
2022-09-09T17:36:21.253Z,0.90
2022-09-09T17:38:47.901Z,0.80
2022-09-09T17:41:17.526Z,0.70
2022-09-09T17:43:45.128Z,0.80
2022-09-09T17:46:13.515Z,0.90
2022-09-09T17:48:43.766Z,0.80
2022-09-09T17:51:14.527Z,0.70
2022-09-09T17:53:43.719Z,0.70
2022-09-09T17:56:13.941Z,0.70
2022-09-09T17:58:41.269Z,0.70
2022-09-09T18:01:14.547Z,0.60
2022-09-09T18:03:43.603Z,0.60
2022-09-09T18:06:16.419Z,0.80
2022-09-09T18:08:47.820Z,0.80
2022-09-09T18:11:14.653Z,0.70
2022-09-09T18:13:48.869Z,0.70
2022-09-09T18:16:15.544Z,0.70
2022-09-09T18:18:42.312Z,0.60
2022-09-09T18:21:09.593Z,0.60
2022-09-09T18:23:42.732Z,0.70
2022-09-09T18:26:21.354Z,0.80
2022-09-09T18:28:51.089Z,0.70
2022-09-09T18:31:18.476Z,0.70
2022-09-09T18:39:03.962Z,0.60
2022-09-09T18:41:33.551Z,0.70
2022-09-09T18:44:04.167Z,0.60
2022-09-09T18:46:33.691Z,0.90
2022-09-09T18:49:00.632Z,1.00
2022-09-09T18:51:29.825Z,0.90
2022-09-09T18:54:05.482Z,0.80
2022-09-09T18:56:32.287Z,1.40
2022-09-09T18:59:01.827Z,1.00
2022-09-09T19:01:28.979Z,1.00
2022-09-09T19:06:27.828Z,1.20
2022-09-09T19:08:56.309Z,0.80
2022-09-09T19:11:27.242Z,0.60
2022-09-09T19:14:03.941Z,0.50
2022-09-09T19:16:33.794Z,0.90
2022-09-09T19:19:13.745Z,0.80
2022-09-09T19:21:42.062Z,0.80
2022-09-09T19:24:13.198Z,0.70
2022-09-09T19:26:43.997Z,0.60
2022-09-09T19:29:19.242Z,0.60
2022-09-09T19:32:06.565Z,0.60
2022-09-09T19:34:33.639Z,0.60
2022-09-09T19:37:03.368Z,0.50
2022-09-09T19:39:30.059Z,0.60
2022-09-09T19:41:58.510Z,0.50
2022-09-09T19:44:27.938Z,0.80
2022-09-09T19:46:56.083Z,0.70
2022-09-09T19:49:22.929Z,0.60
2022-09-09T19:51:52.545Z,0.70
2022-09-09T19:54:19.571Z,0.90
2022-09-09T19:56:46.509Z,0.90
2022-09-09T19:59:13.421Z,0.70
2022-09-09T20:01:44.426Z,0.70
2022-09-09T20:04:12.217Z,0.70
2022-09-09T20:06:40.795Z,0.70
2022-09-09T20:09:10.504Z,0.60
2022-09-09T20:11:38.325Z,0.80
2022-09-09T20:14:05.359Z,0.90
2022-09-09T20:16:32.334Z,0.90
2022-09-09T20:19:02.233Z,0.90
2022-09-09T20:21:38.251Z,1.10
2022-09-09T20:24:07.417Z,0.80
2022-09-09T20:26:37.419Z,0.60
2022-09-09T20:29:07.651Z,0.70
2022-09-09T20:31:36.763Z,0.70
2022-09-09T20:34:06.026Z,0.70
2022-09-09T20:36:35.419Z,0.90
2022-09-09T20:39:08.721Z,1.10
2022-09-09T20:41:37.023Z,0.80
2022-09-09T20:44:12.197Z,0.80
2022-09-09T20:46:41.250Z,0.80
2022-09-09T20:49:09.811Z,0.80
2022-09-09T20:51:37.848Z,1.10
2022-09-09T20:54:08.551Z,0.90
2022-09-09T20:56:38.641Z,0.90
2022-09-09T20:59:06.891Z,0.90
2022-09-09T21:01:34.219Z,1.30
2022-09-09T21:04:01.195Z,0.80
2022-09-09T21:06:27.894Z,0.80
2022-09-09T21:08:54.703Z,1.10
2022-09-09T21:11:22.079Z,0.90
2022-09-09T21:13:48.978Z,1.00
2022-09-09T21:16:19.461Z,0.80
2022-09-09T21:18:47.586Z,0.90
2022-09-09T21:21:14.941Z,1.00
2022-09-09T21:23:42.093Z,1.00
2022-09-09T21:26:09.732Z,1.10
2022-09-09T21:28:37.586Z,1.00
2022-09-09T21:31:07.736Z,1.00
2022-09-09T21:33:34.663Z,1.00
2022-09-09T21:36:09.026Z,0.90
2022-09-09T21:38:36.329Z,1.00
2022-09-09T21:41:15.629Z,1.00
2022-09-09T21:43:43.751Z,1.00
2022-09-09T21:46:17.675Z,1.00
2022-09-09T21:48:44.712Z,1.00
2022-09-09T21:51:14.869Z,1.00
2022-09-09T21:53:42.250Z,0.90
2022-09-09T21:56:18.524Z,1.00
2022-09-09T21:58:47.375Z,0.90
2022-09-09T22:01:16.471Z,0.90
2022-09-09T22:03:43.814Z,0.90
2022-09-09T22:06:13.165Z,1.00
2022-09-09T22:08:39.946Z,0.80
2022-09-09T22:11:13.966Z,1.00
2022-09-09T22:13:40.782Z,1.10
2022-09-09T22:16:09.272Z,0.90
2022-09-09T22:18:36.720Z,1.10
2022-09-09T22:21:12.544Z,0.90
2022-09-09T22:23:39.525Z,1.10
2022-09-09T22:26:06.673Z,0.90
2022-09-09T22:28:34.338Z,0.90
2022-09-09T22:31:01.376Z,1.00
2022-09-09T22:33:28.515Z,1.70
2022-09-09T22:35:55.356Z,2.00
2022-09-09T22:38:22.443Z,1.90
2022-09-09T22:40:49.547Z,1.00
2022-09-09T22:43:19.414Z,1.10
2022-09-09T22:45:46.255Z,1.00
2022-09-09T22:48:14.983Z,0.70
2022-09-09T22:50:42.656Z,0.90
2022-09-09T22:53:13.132Z,0.70
2022-09-09T22:55:40.231Z,0.80
2022-09-09T22:58:07.130Z,0.70
2022-09-09T23:00:34.052Z,1.00
2022-09-09T23:03:01.144Z,0.80
2022-09-09T23:05:28.338Z,0.70
2022-09-09T23:07:58.384Z,0.60
2022-09-09T23:10:27.080Z,0.80
2022-09-09T23:12:54.266Z,0.50
2022-09-09T23:15:21.275Z,0.60
2022-09-09T23:17:49.763Z,0.60
2022-09-09T23:20:19.052Z,0.60
2022-09-09T23:22:46.093Z,0.60
2022-09-09T23:25:13.121Z,0.70
2022-09-09T23:27:40.211Z,0.60
2022-09-09T23:30:08.017Z,0.90
2022-09-09T23:32:34.880Z,0.70
2022-09-09T23:35:01.569Z,0.70
2022-09-09T23:37:31.410Z,0.50
2022-09-09T23:39:58.238Z,0.60
2022-09-09T23:42:26.783Z,0.70
2022-09-09T23:44:53.942Z,0.60
2022-09-09T23:47:21.088Z,0.60
2022-09-09T23:49:48.917Z,0.80
2022-09-09T23:52:15.816Z,0.60
2022-09-09T23:54:43.627Z,0.50
2022-09-09T23:57:13.556Z,0.70
2022-09-09T23:59:40.321Z,0.70
